createdAt,value
2018-09-09T00:02:10.496Z,2.40
2018-09-09T00:04:40.364Z,2.00
2018-09-09T00:07:10.147Z,2.20
2018-09-09T00:09:45.060Z,2.13
2018-09-09T00:12:14.895Z,2.50
2018-09-09T00:14:44.745Z,2.10
2018-09-09T00:17:14.575Z,2.27
2018-09-09T00:19:44.409Z,2.20
2018-09-09T00:22:14.224Z,2.50
2018-09-09T00:24:44.142Z,1.90
2018-09-09T00:27:14.087Z,2.07
2018-09-09T00:29:43.945Z,1.87
2018-09-09T00:32:13.750Z,2.50
2018-09-09T00:34:43.626Z,2.27
2018-09-09T00:37:13.466Z,1.93
2018-09-09T00:39:43.347Z,1.70
2018-09-09T00:42:13.210Z,2.40
2018-09-09T00:44:43.006Z,1.90
2018-09-09T00:47:12.831Z,2.13
2018-09-09T00:49:47.627Z,2.10
2018-09-09T01:30:31.552Z,1.97
2018-09-09T01:34:09.738Z,2.20
2018-09-09T01:38:59.478Z,2.30
2018-09-09T02:24:20.485Z,2.30
2018-09-09T02:26:50.329Z,2.10
2018-09-09T02:29:20.168Z,2.50
2018-09-09T02:31:49.960Z,3.03
2018-09-09T02:48:56.791Z,2.53
2018-09-09T02:51:26.611Z,1.90
2018-09-09T02:53:56.455Z,2.20
2018-09-09T02:56:26.235Z,2.20
2018-09-09T02:58:56.107Z,2.40
2018-09-09T03:01:25.877Z,2.20
2018-09-09T03:03:55.649Z,2.60
2018-09-09T03:06:25.459Z,2.30
2018-09-09T03:08:55.254Z,2.07
2018-09-09T03:11:25.054Z,2.27
2018-09-09T03:13:54.903Z,2.40
2018-09-09T03:16:24.697Z,2.20
2018-09-09T03:18:54.546Z,2.30
2018-09-09T03:21:24.318Z,2.27
2018-09-09T03:23:54.269Z,2.67
2018-09-09T03:26:24.083Z,2.20
2018-09-09T03:28:54.150Z,2.43
2018-09-09T03:31:23.946Z,2.40
2018-09-09T03:33:53.795Z,1.97
2018-09-09T03:36:23.558Z,2.03
2018-09-09T03:38:53.404Z,2.43
2018-09-09T03:41:23.236Z,2.57
2018-09-09T03:43:53.062Z,2.10
2018-09-09T03:46:22.844Z,2.10
2018-09-09T03:48:52.673Z,2.50
2018-09-09T03:51:22.473Z,1.90
2018-09-09T03:53:52.278Z,2.60
2018-09-09T03:56:22.111Z,2.40
2018-09-09T03:58:51.896Z,2.43
2018-09-09T04:01:21.725Z,2.23
2018-09-09T04:03:51.542Z,2.40
2018-09-09T04:06:21.329Z,2.83
2018-09-09T04:08:51.243Z,2.40
2018-09-09T04:11:20.990Z,2.23
2018-09-09T04:13:50.801Z,2.40
2018-09-09T04:16:20.597Z,2.27
2018-09-09T04:18:50.389Z,2.67
2018-09-09T04:21:20.199Z,2.63
2018-09-09T04:23:50.049Z,2.20
2018-09-09T04:26:19.836Z,2.43
2018-09-09T04:28:49.678Z,2.77
2018-09-09T04:31:19.503Z,2.43
2018-09-09T04:33:49.317Z,2.43
2018-09-09T04:36:19.077Z,2.30
2018-09-09T04:38:48.909Z,2.70
2018-09-09T04:41:18.750Z,2.47
2018-09-09T04:43:48.545Z,2.40
2018-09-09T04:46:18.389Z,2.17
2018-09-09T04:48:48.254Z,2.20
2018-09-09T04:51:18.046Z,2.17
2018-09-09T04:53:47.825Z,2.30
2018-09-09T04:56:17.686Z,2.10
2018-09-09T04:58:47.493Z,2.13
2018-09-09T05:01:17.349Z,2.20
2018-09-09T05:03:47.154Z,2.10
2018-09-09T05:06:16.958Z,2.13
2018-09-09T05:08:46.743Z,1.97
2018-09-09T05:11:16.590Z,2.00
2018-09-09T05:13:46.344Z,2.10
2018-09-09T05:16:16.142Z,1.90
2018-09-09T05:18:45.946Z,2.30
2018-09-09T05:21:15.775Z,2.13
2018-09-09T05:23:45.583Z,2.10
2018-09-09T05:26:15.354Z,2.60
2018-09-09T05:28:45.200Z,2.43
2018-09-09T05:31:14.973Z,1.43
2018-09-09T05:33:44.733Z,1.73
2018-09-09T05:36:14.582Z,1.77
2018-09-09T05:38:44.413Z,1.90
2018-09-09T05:41:14.257Z,2.20
2018-09-09T05:43:44.088Z,1.90
2018-09-09T05:46:13.915Z,2.23
2018-09-09T05:48:43.764Z,1.90
2018-09-09T05:51:13.566Z,2.03
2018-09-09T05:53:43.392Z,1.70
2018-09-09T05:56:13.146Z,2.07
2018-09-09T05:58:42.911Z,1.90
2018-09-09T06:01:12.724Z,1.70
2018-09-09T06:03:42.501Z,1.80
2018-09-09T06:06:12.341Z,1.57
2018-09-09T06:08:42.092Z,1.97
2018-09-09T06:11:11.926Z,1.87
2018-09-09T06:13:41.703Z,2.10
2018-09-09T06:16:11.476Z,2.07
2018-09-09T06:18:41.272Z,1.80
2018-09-09T06:21:11.043Z,1.87
2018-09-09T06:23:40.794Z,1.80
2018-09-09T06:26:10.610Z,1.97
2018-09-09T06:28:40.395Z,2.00
2018-09-09T06:31:10.227Z,2.20
2018-09-09T06:33:40.078Z,2.30
2018-09-09T06:36:09.805Z,1.90
2018-09-09T06:38:39.577Z,1.70
2018-09-09T06:41:09.342Z,1.80
2018-09-09T06:43:39.131Z,1.80
2018-09-09T06:46:08.937Z,1.73
2018-09-09T06:48:38.734Z,1.90
2018-09-09T06:51:08.532Z,2.13
2018-09-09T06:53:38.351Z,2.00
2018-09-09T06:56:08.161Z,1.83
2018-09-09T06:58:37.850Z,1.80
2018-09-09T07:01:07.755Z,1.70
2018-09-09T07:03:37.535Z,1.87
2018-09-09T07:06:07.749Z,1.67
2018-09-09T07:08:37.598Z,1.60
2018-09-09T07:11:07.358Z,2.00
2018-09-09T07:13:36.798Z,1.70
2018-09-09T07:16:06.294Z,1.77
2018-09-09T07:18:35.722Z,1.60
2018-09-09T07:21:05.153Z,2.10
2018-09-09T07:23:34.616Z,1.90
2018-09-09T07:26:04.086Z,1.83
2018-09-09T07:28:33.554Z,2.00
2018-09-09T07:31:03.063Z,1.63
2018-09-09T07:33:32.486Z,1.70
2018-09-09T07:36:01.951Z,1.83
2018-09-09T07:38:31.413Z,1.73
2018-09-09T07:41:00.900Z,1.60
2018-09-09T07:43:30.371Z,1.73
2018-09-09T07:45:59.905Z,1.67
2018-09-09T07:48:29.453Z,1.73
2018-09-09T07:50:58.942Z,1.80
2018-09-09T07:53:28.367Z,1.90
2018-09-09T07:55:58.052Z,2.10
2018-09-09T07:58:27.502Z,2.40
2018-09-09T08:00:56.940Z,2.00
2018-09-09T08:03:26.326Z,2.23
2018-09-09T08:05:55.736Z,1.97
2018-09-09T08:08:25.212Z,2.03
2018-09-09T08:10:54.681Z,2.17
2018-09-09T08:13:24.127Z,2.00
2018-09-09T08:15:53.555Z,2.13
2018-09-09T08:18:23.091Z,1.90
2018-09-09T08:20:52.483Z,2.03
2018-09-09T08:23:21.907Z,2.17
2018-09-09T08:25:51.317Z,2.20
2018-09-09T08:28:20.730Z,2.07
2018-09-09T08:30:50.169Z,2.00
2018-09-09T08:33:19.587Z,2.00
2018-09-09T08:35:49.017Z,2.10
2018-09-09T08:38:18.509Z,1.90
2018-09-09T08:40:48.249Z,1.87
2018-09-09T08:43:17.666Z,1.80
2018-09-09T08:45:47.421Z,1.43
2018-09-09T08:48:17.178Z,2.00
2018-09-09T08:50:46.959Z,1.63
2018-09-09T08:53:16.832Z,1.60
2018-09-09T08:55:46.619Z,1.57
2018-09-09T08:58:16.418Z,1.50
2018-09-09T09:00:46.205Z,1.50
2018-09-09T09:03:16.010Z,1.40
2018-09-09T09:05:45.791Z,1.70
2018-09-09T09:08:15.676Z,1.50
2018-09-09T09:10:45.438Z,1.50
2018-09-09T09:13:15.202Z,1.40
2018-09-09T09:15:45.047Z,1.70
2018-09-09T09:18:14.855Z,1.47
2018-09-09T09:20:44.684Z,1.50
2018-09-09T09:23:14.403Z,1.40
2018-09-09T09:25:49.306Z,1.57
2018-09-09T09:28:18.963Z,1.30
2018-09-09T09:30:48.487Z,1.80
2018-09-09T09:33:17.894Z,1.53
2018-09-09T09:35:48.194Z,1.40
2018-09-09T09:38:18.835Z,1.50
2018-09-09T09:40:48.780Z,1.47
2018-09-09T09:43:20.914Z,1.67
2018-09-09T09:45:50.391Z,1.50
2018-09-09T09:48:22.492Z,1.60
2018-09-09T09:50:52.274Z,1.30
2018-09-09T09:53:22.141Z,1.27
2018-09-09T09:55:52.684Z,2.30
2018-09-09T09:58:22.459Z,1.90
2018-09-09T10:00:59.001Z,1.50
2018-09-09T10:03:32.709Z,1.63
2018-09-09T10:06:03.320Z,1.60
2018-09-09T10:08:33.077Z,1.53
2018-09-09T10:11:04.624Z,1.50
2018-09-09T10:13:34.267Z,1.50
2018-09-09T10:16:07.115Z,1.60
2018-09-09T10:18:36.608Z,1.50
2018-09-09T10:21:06.391Z,1.67
2018-09-09T10:23:37.108Z,1.60
2018-09-09T10:26:07.697Z,1.47
2018-09-09T10:28:37.750Z,1.80
2018-09-09T10:31:07.176Z,1.63
2018-09-09T10:33:36.654Z,1.70
2018-09-09T10:36:06.158Z,1.70
2018-09-09T10:38:35.690Z,1.70
2018-09-09T10:41:06.564Z,1.60
2018-09-09T10:43:39.155Z,1.67
2018-09-09T10:46:09.437Z,1.73
2018-09-09T10:48:39.739Z,1.50
2018-09-09T10:51:09.467Z,1.47
2018-09-09T10:53:39.279Z,1.60
2018-09-09T10:56:09.078Z,1.53
2018-09-09T10:58:42.359Z,1.50
2018-09-09T11:01:12.394Z,1.37
2018-09-09T11:03:41.827Z,1.50
2018-09-09T11:06:11.271Z,1.30
2018-09-09T11:08:40.928Z,1.37
2018-09-09T11:11:10.752Z,1.40
2018-09-09T11:13:41.074Z,1.13
2018-09-09T11:16:10.986Z,1.40
2018-09-09T11:18:40.810Z,1.20
2018-09-09T11:21:11.765Z,1.30
2018-09-09T11:23:42.155Z,1.30
2018-09-09T11:26:11.581Z,1.13
2018-09-09T11:28:42.255Z,1.03
2018-09-09T11:31:11.789Z,1.50
2018-09-09T11:33:41.211Z,1.30
2018-09-09T11:36:10.697Z,1.20
2018-09-09T11:38:40.151Z,1.23
2018-09-09T11:41:09.582Z,1.40
2018-09-09T11:43:39.586Z,1.13
2018-09-09T11:46:12.921Z,1.10
2018-09-09T11:48:42.470Z,1.47
2018-09-09T11:51:12.329Z,1.17
2018-09-09T11:53:42.174Z,1.10
2018-09-09T11:56:13.530Z,1.20
2018-09-09T11:58:45.843Z,1.33
2018-09-09T12:01:15.679Z,1.30
2018-09-09T12:03:46.075Z,1.27
2018-09-09T12:06:15.899Z,1.20
2018-09-09T12:08:45.570Z,1.10
2018-09-09T12:11:15.414Z,1.27
2018-09-09T12:13:45.782Z,1.30
2018-09-09T12:16:15.550Z,1.10
2018-09-09T12:18:45.342Z,1.23
2018-09-09T12:21:15.145Z,1.17
2018-09-09T12:23:44.957Z,1.20
2018-09-09T12:26:14.757Z,1.20
2018-09-09T12:28:44.554Z,1.20
2018-09-09T12:31:14.346Z,1.10
2018-09-09T12:33:44.127Z,1.13
2018-09-09T12:36:13.917Z,0.90
2018-09-09T12:38:43.737Z,1.07
2018-09-09T12:41:13.605Z,0.90
2018-09-09T12:43:48.471Z,1.00
2018-09-09T12:46:23.149Z,1.00
2018-09-09T12:48:57.885Z,1.40
2018-09-09T12:51:27.736Z,1.10
2018-09-09T12:53:57.544Z,1.10
2018-09-09T12:56:27.544Z,0.90
2018-09-09T12:58:57.719Z,1.00
2018-09-09T13:01:27.967Z,0.90
2018-09-09T13:03:57.866Z,0.93
2018-09-09T13:06:27.553Z,1.10
2018-09-09T13:08:57.004Z,1.03
2018-09-09T13:11:26.968Z,1.10
2018-09-09T13:13:56.690Z,0.93
2018-09-09T13:16:27.126Z,1.00
2018-09-09T13:18:56.645Z,1.00
2018-09-09T13:21:26.167Z,0.80
2018-09-09T13:23:55.644Z,1.13
2018-09-09T13:26:25.198Z,0.80
2018-09-09T13:28:54.621Z,0.87
2018-09-09T13:31:24.132Z,0.80
2018-09-09T13:33:53.626Z,1.10
2018-09-09T13:36:23.102Z,1.10
2018-09-09T13:38:52.588Z,0.87
2018-09-09T13:41:22.100Z,1.17
2018-09-09T13:43:51.652Z,1.07
2018-09-09T13:46:21.167Z,0.90
2018-09-09T13:48:50.685Z,1.03
2018-09-09T13:51:20.097Z,1.20
2018-09-09T13:53:49.540Z,0.90
2018-09-09T13:56:19.007Z,0.90
2018-09-09T13:58:48.465Z,0.73
2018-09-09T14:01:17.890Z,0.87
2018-09-09T14:03:47.389Z,1.00
2018-09-09T14:06:16.875Z,0.90
2018-09-09T14:08:46.299Z,1.00
2018-09-09T14:11:15.702Z,0.90
2018-09-09T14:13:45.122Z,1.00
2018-09-09T14:16:14.586Z,0.90
2018-09-09T14:18:44.048Z,1.00
2018-09-09T14:21:13.483Z,0.80
2018-09-09T14:23:42.908Z,0.80
2018-09-09T14:26:12.437Z,0.87
2018-09-09T14:28:43.369Z,0.87
2018-09-09T14:31:13.172Z,1.00
2018-09-09T14:33:43.006Z,1.03
2018-09-09T14:36:12.798Z,1.10
2018-09-09T14:38:42.576Z,1.00
2018-09-09T14:41:12.433Z,1.00
2018-09-09T14:43:42.401Z,0.90
2018-09-09T14:46:12.545Z,1.10
2018-09-09T14:48:42.151Z,1.00
2018-09-09T14:51:11.936Z,0.90
2018-09-09T14:53:41.779Z,0.93
2018-09-09T14:56:11.503Z,1.17
2018-09-09T14:58:41.310Z,1.00
2018-09-09T15:01:12.467Z,1.10
2018-09-09T15:03:42.302Z,1.10
2018-09-09T15:06:13.423Z,1.17
2018-09-09T15:08:43.309Z,0.90
2018-09-09T15:11:13.164Z,1.07
2018-09-09T15:13:42.988Z,1.00
2018-09-09T15:16:12.795Z,1.03
2018-09-09T15:18:42.619Z,0.90
2018-09-09T15:21:12.589Z,1.10
2018-09-09T15:23:42.526Z,0.93
2018-09-09T15:26:12.379Z,1.07
2018-09-09T15:28:42.240Z,1.20
2018-09-09T15:31:12.027Z,1.00
2018-09-09T15:33:41.927Z,0.90
2018-09-09T15:36:11.739Z,0.90
2018-09-09T15:38:41.574Z,0.90
2018-09-09T15:41:11.401Z,1.00
2018-09-09T15:43:41.341Z,0.93
2018-09-09T15:46:11.199Z,0.70
2018-09-09T15:48:41.038Z,0.83
2018-09-09T15:51:11.116Z,0.90
2018-09-09T15:53:40.971Z,0.97
2018-09-09T15:56:10.940Z,0.77
2018-09-09T15:58:41.927Z,0.80
2018-09-09T16:01:12.584Z,0.93
2018-09-09T16:03:42.704Z,0.97
2018-09-09T16:06:12.594Z,1.00
2018-09-09T16:08:42.457Z,1.00
2018-09-09T16:11:12.347Z,0.87
2018-09-09T16:13:42.190Z,1.00
2018-09-09T16:16:12.071Z,1.20
2018-09-09T16:18:42.169Z,0.90
2018-09-09T16:21:11.994Z,1.03
2018-09-09T16:23:41.818Z,1.03
2018-09-09T16:26:11.627Z,0.90
2018-09-09T16:28:41.489Z,0.77
2018-09-09T16:31:11.246Z,0.73
2018-09-09T16:33:41.086Z,0.70
2018-09-09T16:36:10.999Z,0.90
2018-09-09T16:38:40.925Z,0.77
2018-09-09T16:41:10.713Z,0.80
2018-09-09T16:43:40.571Z,0.80
2018-09-09T16:46:10.415Z,0.67
2018-09-09T16:48:40.275Z,0.70
2018-09-09T16:51:10.104Z,0.97
2018-09-09T16:53:40.092Z,0.67
2018-09-09T16:56:09.899Z,0.77
2018-09-09T16:58:39.671Z,0.77
2018-09-09T17:01:09.612Z,0.80
2018-09-09T17:03:39.262Z,0.80
2018-09-09T17:06:09.082Z,0.80
2018-09-09T17:08:38.887Z,1.03
2018-09-09T17:11:08.734Z,1.10
2018-09-09T17:13:38.547Z,1.30
2018-09-09T17:16:08.546Z,1.10
2018-09-09T17:18:38.109Z,0.90
2018-09-09T17:21:07.582Z,1.10
2018-09-09T17:23:37.020Z,1.20
2018-09-09T17:26:06.497Z,1.00
2018-09-09T17:28:36.259Z,1.20
2018-09-09T17:31:06.085Z,1.00
2018-09-09T17:33:35.965Z,1.10
2018-09-09T17:36:05.771Z,1.07
2018-09-09T17:38:35.572Z,1.20
2018-09-09T17:41:05.420Z,1.10
2018-09-09T17:43:35.108Z,1.10
2018-09-09T17:46:05.174Z,1.03
2018-09-09T17:48:35.088Z,1.10
2018-09-09T17:51:04.875Z,1.10
2018-09-09T17:53:35.094Z,1.10
2018-09-09T17:56:05.021Z,1.00
2018-09-09T17:58:34.910Z,0.90
2018-09-09T18:01:04.715Z,0.97
2018-09-09T18:03:34.501Z,1.10
2018-09-09T18:06:04.212Z,1.10
2018-09-09T18:08:33.640Z,1.23
2018-09-09T18:11:04.014Z,0.97
2018-09-09T18:13:33.793Z,1.10
2018-09-09T18:16:03.617Z,0.97
2018-09-09T18:18:33.594Z,1.20
2018-09-09T18:21:03.447Z,1.00
2018-09-09T18:23:33.304Z,0.93
2018-09-09T18:26:03.263Z,1.20
2018-09-09T18:28:33.328Z,1.17
2018-09-09T18:31:03.366Z,1.03
2018-09-09T18:33:33.297Z,1.00
2018-09-09T18:36:03.207Z,1.20
2018-09-09T18:38:33.392Z,1.27
2018-09-09T18:41:03.202Z,1.20
2018-09-09T18:43:33.101Z,1.30
2018-09-09T18:46:02.920Z,1.17
2018-09-09T18:48:32.763Z,1.20
2018-09-09T18:51:02.666Z,1.10
2018-09-09T18:53:32.451Z,1.17
2018-09-09T18:56:03.251Z,1.30
2018-09-09T18:58:33.095Z,1.20
2018-09-09T19:01:02.823Z,1.30
2018-09-09T19:03:32.596Z,1.20
2018-09-09T19:06:02.325Z,1.00
2018-09-09T19:08:32.110Z,1.10
2018-09-09T19:11:01.928Z,1.40
2018-09-09T19:13:31.790Z,1.20
2018-09-09T19:16:01.574Z,1.20
2018-09-09T19:18:31.038Z,1.30
2018-09-09T19:21:00.538Z,1.20
2018-09-09T19:23:29.993Z,1.03
2018-09-09T19:25:59.540Z,1.30
2018-09-09T19:28:29.091Z,1.40
2018-09-09T19:30:58.572Z,1.30
2018-09-09T19:33:28.031Z,1.27
2018-09-09T19:35:57.470Z,1.30
2018-09-09T19:38:26.951Z,1.30
2018-09-09T19:40:56.482Z,1.20
2018-09-09T19:43:26.034Z,1.50
2018-09-09T19:45:55.498Z,1.40
2018-09-09T19:48:25.005Z,1.20
2018-09-09T19:50:54.589Z,1.40
2018-09-09T19:53:24.408Z,1.30
2018-09-09T19:55:54.275Z,1.33
2018-09-09T19:58:23.810Z,1.40
2018-09-09T20:00:53.269Z,1.17
2018-09-09T20:03:22.797Z,1.30
2018-09-09T20:05:52.254Z,1.20
2018-09-09T20:08:21.741Z,1.30
2018-09-09T20:10:51.191Z,1.50
2018-09-09T20:13:20.691Z,1.20
2018-09-09T20:15:50.191Z,1.47
2018-09-09T20:18:19.810Z,1.47
2018-09-09T20:20:49.293Z,1.60
2018-09-09T20:23:18.873Z,1.70
2018-09-09T20:25:48.393Z,1.60
2018-09-09T20:28:17.828Z,1.40
2018-09-09T20:30:47.283Z,1.30
2018-09-09T20:33:16.757Z,1.80
2018-09-09T20:35:46.264Z,1.33
2018-09-09T20:38:15.707Z,1.30
2018-09-09T20:40:45.277Z,1.50
2018-09-09T20:43:14.983Z,1.73
2018-09-09T20:45:44.422Z,1.60
2018-09-09T20:48:14.007Z,1.30
2018-09-09T20:50:43.473Z,1.67
2018-09-09T20:53:12.917Z,1.40
2018-09-09T20:55:42.312Z,1.40
2018-09-09T20:58:11.744Z,1.63
2018-09-09T21:00:41.150Z,1.80
2018-09-09T21:03:10.633Z,1.40
2018-09-09T21:05:40.090Z,1.60
2018-09-09T21:08:09.533Z,1.47
2018-09-09T21:10:39.017Z,1.30
2018-09-09T21:13:08.410Z,1.60
2018-09-09T21:15:37.799Z,1.23
2018-09-09T21:18:07.235Z,1.40
2018-09-09T21:20:36.674Z,1.43
2018-09-09T21:23:06.198Z,1.20
2018-09-09T21:25:35.590Z,1.43
2018-09-09T21:28:05.018Z,1.13
2018-09-09T21:30:34.471Z,1.40
2018-09-09T21:33:04.018Z,1.33
2018-09-09T21:35:33.470Z,1.53
2018-09-09T21:38:02.890Z,1.40
2018-09-09T21:40:32.311Z,1.40
2018-09-09T21:43:01.755Z,1.47
2018-09-09T21:45:31.192Z,1.50
2018-09-09T21:48:00.617Z,1.47
2018-09-09T21:50:30.088Z,1.37
2018-09-09T21:52:59.856Z,1.50
2018-09-09T21:55:29.683Z,1.30
2018-09-09T21:57:59.502Z,1.30
2018-09-09T22:00:29.289Z,1.20
2018-09-09T22:02:59.051Z,1.30
2018-09-09T22:05:28.838Z,1.13
2018-09-09T22:07:58.634Z,1.20
2018-09-09T22:10:28.386Z,1.13
2018-09-09T22:12:58.206Z,1.50
2018-09-09T22:15:27.938Z,1.40
2018-09-09T22:17:57.816Z,1.10
2018-09-09T22:20:27.593Z,1.37
2018-09-09T22:22:57.348Z,1.20
2018-09-09T22:25:27.149Z,1.17
2018-09-09T22:27:56.938Z,1.10
2018-09-09T22:30:26.720Z,1.30
2018-09-09T22:32:56.527Z,1.30
2018-09-09T22:35:26.297Z,1.30
2018-09-09T22:37:56.083Z,1.20
2018-09-09T22:40:25.854Z,1.27
2018-09-09T22:42:55.626Z,1.10
2018-09-09T22:45:25.394Z,1.17
2018-09-09T22:47:55.175Z,1.23
2018-09-09T22:50:24.950Z,1.40
2018-09-09T22:52:54.676Z,1.20
2018-09-09T22:55:24.490Z,1.10
2018-09-09T22:57:54.283Z,1.37
2018-09-09T23:00:24.065Z,0.90
2018-09-09T23:02:53.956Z,1.10
2018-09-09T23:05:24.027Z,1.30
2018-09-09T23:07:53.730Z,1.47
2018-09-09T23:10:23.562Z,1.43
2018-09-09T23:12:53.545Z,1.40
2018-09-09T23:15:28.110Z,1.40
2018-09-09T23:17:57.956Z,1.33
2018-09-09T23:20:27.734Z,1.40
2018-09-09T23:22:57.469Z,1.13
2018-09-09T23:25:27.742Z,0.93
2018-09-09T23:27:57.510Z,1.13
2018-09-09T23:30:27.296Z,1.10
2018-09-09T23:32:57.042Z,1.40
2018-09-09T23:35:26.833Z,1.10
2018-09-09T23:37:56.590Z,1.20
2018-09-09T23:40:26.320Z,1.10
2018-09-09T23:42:56.068Z,1.20
2018-09-09T23:45:25.851Z,1.20
2018-09-09T23:47:55.623Z,1.40
2018-09-09T23:50:25.397Z,1.20
2018-09-09T23:52:55.147Z,1.20
2018-09-09T23:55:24.916Z,1.30
2018-09-09T23:57:54.676Z,1.20
